Time;durP1;ratioP1;P1;durP2;ratioP2;P2;SDS_P1;SDS_P2;PMS_P1;PMS_P2;Temp;Humidity;BMP_temperature;BMP_pressure;BME280_temperature;BME280_humidity;BME280_pressure;Samples;Min_cycle;Max_cycle;Signal;HPM_P1;HPM_P2
2022/06/19 00:01:18;;;;;;;6.68;1.35;;;16.40;93.20;;;;;;5095570;28;20044;-79
2022/06/19 00:03:47;;;;;;;6.20;1.25;;;16.40;93.50;;;;;;5098978;28;20047;-80
2022/06/19 00:06:14;;;;;;;5.88;1.45;;;16.40;94.20;;;;;;5108555;28;20028;-80
2022/06/19 00:08:40;;;;;;;11.02;1.55;;;16.40;94.30;;;;;;5099925;28;20028;-79
2022/06/19 00:11:08;;;;;;;14.85;1.63;;;16.40;94.60;;;;;;5105906;28;20028;-79
2022/06/19 00:13:34;;;;;;;10.80;1.90;;;16.40;95.10;;;;;;5099181;28;20032;-80
2022/06/19 00:15:59;;;;;;;6.68;1.40;;;16.40;95.10;;;;;;5095796;28;20173;-78
2022/06/19 00:18:25;;;;;;;6.60;1.80;;;16.50;95.40;;;;;;5096124;28;20024;-79
2022/06/19 00:20:51;;;;;;;9.50;1.73;;;16.40;95.60;;;;;;5095581;28;20475;-79
2022/06/19 00:23:17;;;;;;;8.07;1.63;;;16.50;95.90;;;;;;5095450;28;20043;-80
2022/06/19 00:25:43;;;;;;;11.00;1.70;;;16.50;96.00;;;;;;5095585;28;20016;-81
2022/06/19 00:28:08;;;;;;;8.63;1.60;;;16.50;96.30;;;;;;5094643;28;20020;-79
2022/06/19 00:30:34;;;;;;;6.57;1.77;;;16.30;96.80;;;;;;5095513;28;20028;-78
2022/06/19 00:33:00;;;;;;;10.35;2.45;;;16.40;96.80;;;;;;5095355;28;20028;-80
2022/06/19 00:35:26;;;;;;;8.35;1.55;;;16.40;97.20;;;;;;5095163;28;20016;-80
2022/06/19 00:37:53;;;;;;;8.40;2.00;;;16.40;96.90;;;;;;5095995;28;20457;-80
2022/06/19 00:40:19;;;;;;;7.63;1.48;;;16.30;97.80;;;;;;5095348;28;20035;-79
2022/06/19 00:42:44;;;;;;;11.02;2.40;;;16.30;98.20;;;;;;5094167;28;20039;-78
2022/06/19 00:45:50;;;;;;;8.95;1.67;;;16.20;98.60;;;;;;5095339;28;20020;-79
2022/06/19 00:48:18;;;;;;;11.68;1.10;;;16.10;99.00;;;;;;5094469;28;20028;-80
2022/06/19 00:50:46;;;;;;;9.23;1.98;;;16.00;98.30;;;;;;5094886;28;20020;-80
2022/06/19 00:53:15;;;;;;;10.32;1.90;;;16.00;97.80;;;;;;5094665;28;20020;-79
2022/06/19 00:55:44;;;;;;;6.32;1.50;;;15.90;98.20;;;;;;5093286;28;20105;-79
2022/06/19 00:58:21;;;;;;;6.55;1.13;;;16.00;98.20;;;;;;5094584;28;20028;-78
2022/06/19 01:00:53;;;;;;;5.82;1.40;;;16.10;98.00;;;;;;5094228;28;20438;-79
2022/06/19 01:03:26;;;;;;;7.78;1.30;;;16.20;98.60;;;;;;5093831;28;20047;-80
2022/06/19 01:05:52;;;;;;;10.38;1.48;;;16.20;98.30;;;;;;5094513;28;20058;-81
2022/06/19 01:08:18;;;;;;;15.02;1.27;;;16.00;98.70;;;;;;5094774;28;20093;-79
2022/06/19 01:10:48;;;;;;;7.97;1.40;;;16.00;98.40;;;;;;5093937;28;20525;-81
2022/06/19 01:13:15;;;;;;;4.70;1.55;;;16.00;98.80;;;;;;5094663;28;20035;-81
2022/06/19 01:15:41;;;;;;;3.65;1.17;;;16.00;99.10;;;;;;5094498;28;20104;-80
2022/06/19 01:18:11;;;;;;;5.53;1.55;;;15.80;99.70;;;;;;5094372;28;20033;-79
2022/06/19 01:20:39;;;;;;;5.35;1.10;;;15.70;99.90;;;;;;5094484;28;20032;-80
2022/06/19 01:23:25;;;;;;;7.72;1.65;;;15.60;99.90;;;;;;5094230;28;20403;-78
2022/06/19 01:25:52;;;;;;;3.90;1.23;;;15.50;99.90;;;;;;5094296;28;20035;-80
2022/06/19 01:31:14;;;;;;;3.67;0.90;;;15.30;99.90;;;;;;5093887;28;20081;-80
2022/06/19 01:33:51;;;;;;;13.40;1.92;;;15.30;99.90;;;;;;5094701;28;20020;-79
2022/06/19 01:36:19;;;;;;;6.43;1.23;;;15.20;99.90;;;;;;5095143;28;20031;-80
2022/06/19 01:38:49;;;;;;;7.78;1.00;;;15.20;99.90;;;;;;5093377;28;20020;-80
2022/06/19 01:41:20;;;;;;;3.92;1.25;;;15.30;99.10;;;;;;5093879;28;20056;-80
2022/06/19 01:43:47;;;;;;;11.73;1.10;;;15.40;96.20;;;;;;5096742;28;20426;-80
2022/06/19 01:46:14;;;;;;;5.00;1.10;;;15.30;95.00;;;;;;5093501;28;20025;-80
2022/06/19 01:48:40;;;;;;;6.90;2.28;;;15.30;94.50;;;;;;5094037;28;20416;-79
2022/06/19 01:51:07;;;;;;;8.30;0.63;;;15.30;94.40;;;;;;5094653;28;20063;-80
2022/06/19 01:53:58;;;;;;;7.15;1.42;;;15.40;94.40;;;;;;5093040;28;20039;-79
2022/06/19 01:56:24;;;;;;;6.40;1.10;;;15.40;94.60;;;;;;5094199;28;20081;-80
2022/06/19 01:58:53;;;;;;;5.53;1.13;;;15.40;94.30;;;;;;5093232;28;20024;-80
2022/06/19 02:01:19;;;;;;;5.78;0.82;;;15.40;94.30;;;;;;5098108;28;20048;-80
2022/06/19 02:03:51;;;;;;;5.38;0.95;;;15.40;94.50;;;;;;5106877;28;20057;-79
2022/06/19 02:06:24;;;;;;;9.45;0.90;;;15.40;94.10;;;;;;5092629;28;20028;-80
2022/06/19 02:08:50;;;;;;;4.20;1.20;;;15.40;94.80;;;;;;5093194;28;20039;-80
2022/06/19 02:11:16;;;;;;;10.85;1.70;;;15.40;95.40;;;;;;5093861;28;20024;-80
2022/06/19 02:13:44;;;;;;;6.47;1.63;;;15.40;96.20;;;;;;5102526;28;20035;-80
2022/06/19 02:16:14;;;;;;;4.72;1.65;;;15.40;96.60;;;;;;5095649;28;20020;-79
2022/06/19 02:18:43;;;;;;;6.13;1.08;;;15.30;97.00;;;;;;5104954;28;20020;-79
2022/06/19 02:21:14;;;;;;;8.73;2.35;;;15.30;97.30;;;;;;5100575;28;20056;-80
2022/06/19 02:23:40;;;;;;;7.15;1.13;;;15.40;97.70;;;;;;5095342;28;20484;-80
2022/06/19 02:26:12;;;;;;;5.60;1.13;;;15.30;98.10;;;;;;5098360;28;20020;-78
2022/06/19 02:28:42;;;;;;;9.68;2.03;;;15.30;98.50;;;;;;5095010;28;20020;-79
2022/06/19 02:31:07;;;;;;;8.00;1.75;;;15.30;98.80;;;;;;5105302;28;20032;-80
2022/06/19 02:33:38;;;;;;;8.45;1.63;;;15.30;99.40;;;;;;5099768;28;20108;-82
2022/06/19 02:36:38;;;;;;;11.50;1.30;;;15.30;99.80;;;;;;5093440;28;20024;-81
2022/06/19 02:39:37;;;;;;;15.23;2.33;;;15.30;99.90;;;;;;5093153;28;20031;-80
2022/06/19 02:42:08;;;;;;;10.82;1.83;;;15.30;99.90;;;;;;5092250;28;20402;-81
2022/06/19 02:44:40;;;;;;;8.02;1.48;;;15.30;99.90;;;;;;5093348;28;20036;-81
2022/06/19 02:47:06;;;;;;;6.82;2.15;;;15.20;99.90;;;;;;5092978;28;20468;-80
2022/06/19 02:49:33;;;;;;;8.80;2.03;;;15.20;99.90;;;;;;5092205;28;20032;-80
2022/06/19 02:52:00;;;;;;;12.13;2.30;;;15.20;99.90;;;;;;5092958;28;20032;-81
2022/06/19 02:54:26;;;;;;;14.40;2.05;;;15.30;99.90;;;;;;5092886;28;20476;-81
2022/06/19 02:56:52;;;;;;;6.07;1.13;;;15.30;99.90;;;;;;5092449;28;20050;-81
2022/06/19 02:59:18;;;;;;;5.07;1.25;;;15.30;99.90;;;;;;5093132;28;20528;-80
2022/06/19 03:01:43;;;;;;;11.88;2.28;;;15.30;99.90;;;;;;5091906;28;20044;-80
2022/06/19 03:04:24;;;;;;;7.03;1.90;;;15.30;99.90;;;;;;5092835;28;20038;-81
2022/06/19 03:06:51;;;;;;;6.90;1.27;;;15.30;99.90;;;;;;5092915;28;20039;-80
2022/06/19 03:09:17;;;;;;;10.60;2.00;;;15.30;99.90;;;;;;5091914;28;20107;-79
2022/06/19 03:11:42;;;;;;;7.20;1.75;;;15.40;99.90;;;;;;5092813;28;20099;-80
2022/06/19 03:14:08;;;;;;;11.52;1.75;;;15.40;99.90;;;;;;5092935;28;20024;-80
2022/06/19 03:16:34;;;;;;;12.93;2.17;;;15.40;99.90;;;;;;5091952;28;20032;-79
2022/06/19 03:18:59;;;;;;;9.38;1.63;;;15.40;99.90;;;;;;5093074;28;20027;-81
2022/06/19 03:21:26;;;;;;;7.95;1.92;;;15.50;99.90;;;;;;5097612;28;20062;-81
2022/06/19 03:23:51;;;;;;;8.10;1.83;;;15.50;99.90;;;;;;5096946;28;20479;-80
2022/06/19 03:26:17;;;;;;;14.00;2.47;;;15.50;99.90;;;;;;5099126;28;20071;-80
2022/06/19 03:28:42;;;;;;;11.48;2.38;;;15.60;99.90;;;;;;5096436;28;20024;-80
2022/06/19 03:31:19;;;;;;;13.88;1.90;;;15.60;99.90;;;;;;5095907;28;20109;-80
2022/06/19 03:33:45;;;;;;;13.90;2.65;;;15.70;99.90;;;;;;5097532;28;20093;-81
2022/06/19 03:36:11;;;;;;;3.13;1.25;;;15.80;99.90;;;;;;5097652;28;20028;-80
2022/06/19 03:38:36;;;;;;;7.63;1.75;;;15.80;99.90;;;;;;5095656;28;20020;-81
2022/06/19 03:41:02;;;;;;;13.15;2.13;;;15.90;99.90;;;;;;5096312;28;20020;-80
2022/06/19 03:43:27;;;;;;;9.45;1.80;;;15.90;99.90;;;;;;5096402;28;20035;-80
2022/06/19 03:46:01;;;;;;;10.02;1.65;;;15.90;99.90;;;;;;5095560;28;20020;-80
2022/06/19 03:48:26;;;;;;;15.05;2.20;;;15.90;99.90;;;;;;5096106;28;20028;-79
2022/06/19 03:50:52;;;;;;;9.48;1.40;;;15.90;99.90;;;;;;5095562;28;20413;-80
2022/06/19 03:53:18;;;;;;;8.25;1.27;;;16.10;99.90;;;;;;5096121;28;20039;-81
2022/06/19 03:55:44;;;;;;;11.27;2.80;;;16.10;99.80;;;;;;5095981;28;20069;-81
2022/06/19 03:58:10;;;;;;;5.80;1.67;;;16.10;99.90;;;;;;5095276;28;20036;-80
2022/06/19 04:00:35;;;;;;;17.00;2.10;;;16.10;99.90;;;;;;5095578;28;20062;-80
2022/06/19 04:03:01;;;;;;;9.45;2.08;;;16.20;99.90;;;;;;5095971;28;20024;-80
2022/06/19 04:05:27;;;;;;;9.32;1.70;;;16.20;99.90;;;;;;5097885;28;20020;-79
2022/06/19 04:07:52;;;;;;;8.23;1.48;;;16.20;99.90;;;;;;5095781;28;20073;-79
2022/06/19 04:10:20;;;;;;;9.88;1.60;;;16.10;99.90;;;;;;5105671;28;20083;-77
2022/06/19 04:12:46;;;;;;;8.88;2.13;;;16.00;99.90;;;;;;5108748;28;20024;-79
2022/06/19 04:15:12;;;;;;;10.75;2.22;;;15.90;99.90;;;;;;5095679;28;20464;-79
2022/06/19 04:17:39;;;;;;;4.63;1.42;;;15.80;99.90;;;;;;5095709;28;20061;-78
2022/06/19 04:20:07;;;;;;;7.40;1.42;;;15.80;99.90;;;;;;5100701;28;20024;-79
2022/06/19 04:22:34;;;;;;;10.57;1.83;;;15.70;99.90;;;;;;5111365;28;20040;-79
2022/06/19 04:24:59;;;;;;;5.05;0.82;;;15.60;99.90;;;;;;5099570;28;20035;-78
2022/06/19 04:27:25;;;;;;;8.13;1.50;;;15.60;99.90;;;;;;5102135;28;20024;-79
2022/06/19 04:29:57;;;;;;;11.05;1.75;;;15.50;99.90;;;;;;5095722;28;20111;-77
2022/06/19 04:32:22;;;;;;;6.05;1.30;;;15.50;99.90;;;;;;5095694;28;20017;-79
2022/06/19 04:34:51;;;;;;;5.88;1.60;;;15.50;99.70;;;;;;5095215;28;20469;-78
2022/06/19 04:37:16;;;;;;;8.30;1.13;;;15.50;99.90;;;;;;5095144;28;20016;-78
2022/06/19 04:39:42;;;;;;;12.05;1.38;;;15.50;99.90;;;;;;5095061;28;20035;-78
2022/06/19 04:42:08;;;;;;;8.75;1.50;;;15.40;99.90;;;;;;5094501;28;20016;-77
2022/06/19 04:44:34;;;;;;;11.90;1.88;;;15.30;99.90;;;;;;5094970;28;20044;-78
2022/06/19 04:46:59;;;;;;;9.73;1.85;;;15.30;99.90;;;;;;5094933;28;20164;-77
2022/06/19 04:49:25;;;;;;;8.10;1.60;;;15.30;99.90;;;;;;5094486;28;20032;-77
2022/06/19 04:51:51;;;;;;;14.57;2.10;;;15.30;99.90;;;;;;5094895;28;20016;-77
2022/06/19 04:54:16;;;;;;;10.90;1.48;;;15.30;99.90;;;;;;5095207;28;20031;-77
2022/06/19 04:56:42;;;;;;;10.27;2.85;;;15.30;99.90;;;;;;5097906;28;20421;-79
2022/06/19 04:59:08;;;;;;;8.07;1.75;;;15.30;99.90;;;;;;5078784;28;20034;-78
2022/06/19 05:01:36;;;;;;;8.30;2.40;;;15.20;99.90;;;;;;5054119;28;20408;-77
2022/06/19 05:04:07;;;;;;;9.82;2.08;;;15.20;99.90;;;;;;5054802;28;20362;-79
2022/06/19 05:06:33;;;;;;;19.42;2.88;;;15.10;99.90;;;;;;5055353;28;20021;-78
2022/06/19 05:08:59;;;;;;;10.20;1.80;;;15.10;99.90;;;;;;5055020;28;20115;-78
2022/06/19 05:11:28;;;;;;;9.25;1.58;;;15.10;99.90;;;;;;5056142;28;20021;-78
2022/06/19 05:13:53;;;;;;;7.93;2.13;;;15.10;99.90;;;;;;5054439;28;20102;-78
2022/06/19 05:16:22;;;;;;;12.23;1.58;;;15.10;99.90;;;;;;5054576;28;20473;-77
2022/06/19 05:18:49;;;;;;;11.55;2.10;;;15.10;99.90;;;;;;5055225;28;20473;-78
2022/06/19 05:21:15;;;;;;;14.38;1.80;;;15.20;99.90;;;;;;5055139;28;20025;-78
2022/06/19 05:23:44;;;;;;;10.95;1.98;;;15.10;99.90;;;;;;5054811;28;20043;-78
2022/06/19 05:26:34;;;;;;;12.13;2.47;;;15.10;99.90;;;;;;5055682;28;20100;-79
2022/06/19 05:29:00;;;;;;;12.98;2.80;;;15.10;99.90;;;;;;5054263;28;20158;-79
2022/06/19 05:31:27;;;;;;;10.93;2.20;;;15.00;99.90;;;;;;5053352;28;20028;-79
2022/06/19 05:33:53;;;;;;;15.65;1.92;;;14.80;99.90;;;;;;5053880;28;20031;-78
2022/06/19 05:36:20;;;;;;;11.15;2.30;;;14.50;99.90;;;;;;5053307;28;20021;-78
2022/06/19 05:38:46;;;;;;;9.00;2.50;;;14.50;99.90;;;;;;5053636;28;20483;-78
2022/06/19 05:41:15;;;;;;;11.57;2.15;;;14.40;99.90;;;;;;5053950;28;20061;-78
2022/06/19 05:43:40;;;;;;;15.70;2.38;;;14.40;99.90;;;;;;5052842;28;20047;-80
2022/06/19 05:46:17;;;;;;;9.25;2.13;;;14.40;99.90;;;;;;5055873;28;20554;-78
2022/06/19 05:48:43;;;;;;;9.45;2.15;;;14.40;99.90;;;;;;5053688;28;20074;-79
2022/06/19 05:51:13;;;;;;;12.82;2.08;;;14.40;99.90;;;;;;5053128;28;20370;-78
2022/06/19 05:53:42;;;;;;;14.50;2.40;;;14.40;99.90;;;;;;5053724;28;20170;-78
2022/06/19 05:56:08;;;;;;;12.00;2.40;;;14.40;99.90;;;;;;5053533;28;20053;-78
2022/06/19 05:58:35;;;;;;;10.98;2.83;;;14.40;99.90;;;;;;5053069;28;20036;-77
2022/06/19 06:01:02;;;;;;;12.25;1.88;;;14.40;99.90;;;;;;5080961;28;20129;-79
2022/06/19 06:03:27;;;;;;;11.90;2.88;;;15.30;99.90;;;;;;5093458;28;20039;-79
2022/06/19 06:05:58;;;;;;;13.65;2.15;;;14.30;99.90;;;;;;5092911;28;20379;-79
2022/06/19 06:08:23;;;;;;;9.40;2.30;;;14.20;99.90;;;;;;5093414;28;20476;-79
2022/06/19 06:10:49;;;;;;;12.00;3.17;;;14.10;99.90;;;;;;5093639;28;20055;-78
2022/06/19 06:13:15;;;;;;;11.00;2.55;;;14.10;99.90;;;;;;5092672;28;20103;-78
2022/06/19 06:15:40;;;;;;;10.95;2.55;;;14.00;99.90;;;;;;5093504;28;20502;-78
2022/06/19 06:18:06;;;;;;;18.88;3.17;;;14.00;99.90;;;;;;5100085;28;20427;-78
2022/06/19 06:20:32;;;;;;;7.00;2.38;;;14.00;99.90;;;;;;5103639;28;20107;-80
2022/06/19 06:22:57;;;;;;;9.93;1.90;;;14.00;99.90;;;;;;5093464;28;20081;-79
2022/06/19 06:25:23;;;;;;;13.38;2.47;;;13.90;99.90;;;;;;5094183;28;20020;-80
2022/06/19 06:27:49;;;;;;;8.48;2.20;;;14.00;99.90;;;;;;5093662;28;20036;-79
2022/06/19 06:30:15;;;;;;;11.55;2.20;;;13.90;99.90;;;;;;5099053;28;20076;-78
2022/06/19 06:32:40;;;;;;;7.32;2.30;;;13.90;99.90;;;;;;5094172;28;20120;-79
2022/06/19 06:35:07;;;;;;;16.58;2.97;;;13.90;99.90;;;;;;5104663;28;20028;-77
2022/06/19 06:37:33;;;;;;;9.48;1.80;;;14.00;99.90;;;;;;5096319;28;20035;-76
2022/06/19 06:39:58;;;;;;;7.13;1.48;;;14.00;99.90;;;;;;5093751;28;20490;-79
2022/06/19 06:42:24;;;;;;;11.02;2.15;;;14.00;99.90;;;;;;5094027;28;20472;-80
2022/06/19 06:44:49;;;;;;;37.17;3.10;;;14.10;99.90;;;;;;5093285;28;20480;-79
2022/06/19 06:47:18;;;;;;;10.07;2.70;;;14.20;99.90;;;;;;5092320;28;20027;-79
2022/06/19 06:49:43;;;;;;;11.18;2.38;;;14.20;99.90;;;;;;5093047;28;20436;-78
2022/06/19 06:52:10;;;;;;;7.55;1.80;;;14.30;99.90;;;;;;5093086;28;20063;-79
2022/06/19 06:54:36;;;;;;;14.73;2.47;;;14.20;99.90;;;;;;5094496;28;20059;-79
2022/06/19 06:57:04;;;;;;;11.38;2.45;;;14.20;99.90;;;;;;5097431;28;20032;-78
2022/06/19 06:59:29;;;;;;;9.52;1.92;;;14.20;99.90;;;;;;5097004;28;20372;-80
2022/06/19 07:01:55;;;;;;;10.85;2.30;;;14.10;99.90;;;;;;5096806;28;20078;-77
2022/06/19 07:04:20;;;;;;;10.65;2.45;;;14.20;99.90;;;;;;5097430;28;20383;-80
2022/06/19 07:06:46;;;;;;;15.40;2.33;;;14.10;99.90;;;;;;5097313;28;20032;-80
2022/06/19 07:09:12;;;;;;;13.13;2.30;;;14.10;99.90;;;;;;5098724;28;20032;-79
2022/06/19 07:11:40;;;;;;;15.18;2.33;;;14.10;99.90;;;;;;5097049;28;20020;-79
2022/06/19 07:14:07;;;;;;;10.02;2.30;;;14.10;99.90;;;;;;5096805;28;20570;-79
2022/06/19 07:16:33;;;;;;;9.95;2.38;;;14.10;99.90;;;;;;5096187;28;20024;-79
2022/06/19 07:18:59;;;;;;;8.40;1.88;;;14.10;99.90;;;;;;5098561;28;20027;-79
2022/06/19 07:21:25;;;;;;;10.90;1.92;;;14.10;99.90;;;;;;5096956;28;20020;-80
2022/06/19 07:23:50;;;;;;;14.40;2.42;;;14.20;99.90;;;;;;5096160;28;20122;-79
2022/06/19 07:26:18;;;;;;;9.60;1.77;;;14.20;99.90;;;;;;5097658;28;20456;-78
2022/06/19 07:28:44;;;;;;;8.00;2.03;;;14.30;99.90;;;;;;5096730;28;20031;-79
2022/06/19 07:31:10;;;;;;;6.22;1.67;;;14.30;99.90;;;;;;5095725;28;20468;-77
2022/06/19 07:33:37;;;;;;;8.65;2.10;;;14.20;99.90;;;;;;5096855;28;20032;-79
2022/06/19 07:36:08;;;;;;;10.00;1.98;;;14.30;99.90;;;;;;5104910;28;20020;-79
2022/06/19 07:38:34;;;;;;;11.23;2.47;;;14.30;99.90;;;;;;5100717;28;20024;-78
2022/06/19 07:41:00;;;;;;;13.25;2.00;;;14.30;99.90;;;;;;5096558;28;20028;-80
2022/06/19 07:43:26;;;;;;;8.95;1.88;;;14.20;99.90;;;;;;5095961;28;20042;-78
2022/06/19 07:45:52;;;;;;;7.75;1.80;;;14.20;99.90;;;;;;5096737;28;20028;-80
2022/06/19 07:51:02;;;;;;;12.07;2.03;;;14.20;99.90;;;;;;5102661;28;20105;-79
2022/06/19 07:53:28;;;;;;;10.18;2.15;;;14.00;99.90;;;;;;5096393;28;20410;-78
2022/06/19 07:55:53;;;;;;;7.60;1.50;;;13.90;99.90;;;;;;5096090;28;20021;-80
2022/06/19 07:58:19;;;;;;;11.10;2.05;;;13.90;99.90;;;;;;5096237;28;20047;-79
2022/06/19 08:00:45;;;;;;;13.35;3.05;;;13.80;99.90;;;;;;5095860;28;20407;-79
2022/06/19 08:03:10;;;;;;;8.65;1.83;;;13.80;99.90;;;;;;5095878;28;20032;-80
2022/06/19 08:05:38;;;;;;;5.43;1.75;;;13.80;99.90;;;;;;5094982;28;20024;-80
2022/06/19 08:08:09;;;;;;;14.05;2.83;;;13.80;99.90;;;;;;5095832;28;20468;-78
2022/06/19 08:10:40;;;;;;;8.40;1.98;;;13.80;99.90;;;;;;5095971;28;20031;-79
2022/06/19 08:13:06;;;;;;;11.35;2.40;;;13.90;99.90;;;;;;5095457;28;20430;-79
2022/06/19 08:15:33;;;;;;;11.00;3.15;;;13.80;99.90;;;;;;5095978;28;20024;-79
2022/06/19 08:17:59;;;;;;;11.30;3.00;;;13.80;99.90;;;;;;5095607;28;20106;-79
2022/06/19 08:20:25;;;;;;;12.40;2.53;;;13.90;99.90;;;;;;5094998;28;20040;-78
2022/06/19 08:22:51;;;;;;;16.85;3.45;;;13.80;99.90;;;;;;5095437;28;20032;-78
2022/06/19 08:25:20;;;;;;;12.45;2.45;;;13.90;99.90;;;;;;5095881;28;20460;-78
2022/06/19 08:27:49;;;;;;;16.33;2.35;;;14.00;99.90;;;;;;5104671;28;20047;-79
2022/06/19 08:30:24;;;;;;;13.18;2.60;;;14.00;99.90;;;;;;5095830;28;20103;-78
2022/06/19 08:32:50;;;;;;;13.60;2.70;;;14.10;99.90;;;;;;5094597;28;20036;-79
2022/06/19 08:35:16;;;;;;;15.20;3.28;;;14.00;99.90;;;;;;5095226;28;20024;-78
2022/06/19 08:37:45;;;;;;;14.82;2.92;;;14.00;99.90;;;;;;5096732;28;20047;-78
2022/06/19 08:40:36;;;;;;;16.35;2.58;;;14.00;99.90;;;;;;5096659;28;20023;-78
2022/06/19 08:43:23;;;;;;;8.25;2.47;;;14.20;99.90;;;;;;5100368;28;20036;-80
2022/06/19 08:45:55;;;;;;;16.77;2.63;;;14.20;99.90;;;;;;5095715;28;20047;-78
2022/06/19 08:48:26;;;;;;;14.38;2.92;;;14.30;99.90;;;;;;5094743;28;20066;-78
2022/06/19 08:51:11;;;;;;;13.65;2.50;;;14.40;99.90;;;;;;5095307;28;20107;-78
2022/06/19 08:54:10;;;;;;;17.92;2.75;;;14.50;99.90;;;;;;5094721;28;20024;-76
2022/06/19 08:56:57;;;;;;;12.82;2.78;;;14.70;99.90;;;;;;5090668;28;20032;-77
2022/06/19 08:59:55;;;;;;;17.20;3.55;;;14.90;99.90;;;;;;5096215;28;20035;-77
2022/06/19 09:02:39;;;;;;;9.90;2.33;;;15.00;99.90;;;;;;5062906;28;20067;-77
2022/06/19 09:05:38;;;;;;;13.07;2.80;;;16.40;99.90;;;;;;5094966;28;20024;-77
2022/06/19 09:08:22;;;;;;;13.02;2.40;;;15.40;99.90;;;;;;5095911;28;20025;-77
2022/06/19 09:10:52;;;;;;;11.15;2.38;;;15.80;99.90;;;;;;5094772;28;20460;-77
2022/06/19 09:13:29;;;;;;;16.38;3.25;;;16.20;99.90;;;;;;5094651;28;20476;-77
2022/06/19 09:16:03;;;;;;;9.38;2.00;;;16.40;99.90;;;;;;5094078;28;20107;-76
2022/06/19 09:18:39;;;;;;;12.88;2.67;;;16.60;99.90;;;;;;5093913;28;20467;-77
2022/06/19 09:21:10;;;;;;;9.57;1.80;;;16.80;99.90;;;;;;5094659;28;20063;-79
2022/06/19 09:23:57;;;;;;;11.07;2.38;;;16.80;99.90;;;;;;5094070;28;20391;-79
2022/06/19 09:27:09;;;;;;;16.83;1.92;;;17.10;99.90;;;;;;5094447;28;20032;-78
2022/06/19 09:29:47;;;;;;;10.18;1.98;;;17.40;99.90;;;;;;5088529;28;20032;-78
2022/06/19 09:32:37;;;;;;;5.30;1.65;;;17.50;99.90;;;;;;5094637;28;20146;-77
2022/06/19 09:35:18;;;;;;;4.65;1.70;;;17.50;99.90;;;;;;5094375;28;20035;-78
2022/06/19 09:37:48;;;;;;;;;;;17.40;99.90;;;;;;5093920;28;20024;-78
2022/06/19 09:40:20;;;;;;;6.90;1.92;;;17.30;99.90;;;;;;5093990;28;20002;-79
2022/06/19 09:42:56;;;;;;;7.60;1.60;;;17.30;99.90;;;;;;5093509;28;20428;-79
2022/06/19 09:45:31;;;;;;;8.45;2.05;;;17.30;99.90;;;;;;5093924;28;20388;-79
2022/06/19 09:48:26;;;;;;;11.05;2.45;;;17.30;99.90;;;;;;5093851;28;20020;-78
2022/06/19 09:51:01;;;;;;;7.00;1.55;;;17.60;99.90;;;;;;5083873;28;20424;-78
2022/06/19 09:53:30;;;;;;;6.45;2.42;;;17.70;99.90;;;;;;5093894;28;20035;-77
2022/06/19 09:56:04;;;;;;;12.02;2.55;;;17.60;99.90;;;;;;5093719;28;20028;-77
2022/06/19 09:58:37;;;;;;;5.95;1.77;;;17.50;99.90;;;;;;5093179;28;20085;-79
2022/06/19 10:01:03;;;;;;;8.50;1.73;;;17.30;99.90;;;;;;5093427;28;20587;-78
2022/06/19 10:04:04;;;;;;;7.80;2.15;;;17.30;99.90;;;;;;5093806;28;20043;-78
2022/06/19 10:06:47;;;;;;;5.38;1.63;;;17.20;99.90;;;;;;5093687;28;20128;-78
2022/06/19 10:09:30;;;;;;;7.15;2.08;;;17.20;99.90;;;;;;5095471;28;20036;-78
2022/06/19 10:11:59;;;;;;;6.80;2.08;;;17.10;99.90;;;;;;5095452;28;20024;-80
2022/06/19 10:14:36;;;;;;;7.93;1.92;;;17.00;99.90;;;;;;5103414;28;20081;-79
2022/06/19 10:17:18;;;;;;;10.68;2.70;;;17.00;99.90;;;;;;5109066;28;20024;-78
2022/06/19 10:19:50;;;;;;;7.78;1.88;;;16.80;99.90;;;;;;5094102;28;20100;-79
2022/06/19 10:22:15;;;;;;;12.57;2.30;;;16.70;99.90;;;;;;5095225;28;20533;-78
2022/06/19 10:24:53;;;;;;;8.23;2.00;;;16.60;99.90;;;;;;5095157;28;20130;-79
2022/06/19 10:27:38;;;;;;;12.38;1.83;;;16.50;99.90;;;;;;5099067;28;20050;-79
2022/06/19 10:30:18;;;;;;;6.25;1.73;;;16.50;99.90;;;;;;5098264;28;20024;-78
2022/06/19 10:33:12;;;;;;;6.70;1.77;;;16.50;99.90;;;;;;5093497;28;20115;-79
2022/06/19 10:35:50;;;;;;;7.20;1.90;;;16.60;99.90;;;;;;5099730;28;20031;-81
2022/06/19 10:38:35;;;;;;;11.27;2.15;;;16.60;99.90;;;;;;5094023;28;20081;-80
2022/06/19 10:42:04;;;;;;;11.10;2.50;;;16.70;99.90;;;;;;5094700;28;20020;-80
2022/06/19 10:44:48;;;;;;;8.07;1.90;;;16.60;99.90;;;;;;5098029;28;20036;-78
2022/06/19 10:47:26;;;;;;;9.27;2.08;;;16.60;99.90;;;;;;5097014;28;20413;-78
2022/06/19 10:50:11;;;;;;;13.13;2.30;;;16.70;99.90;;;;;;5101768;28;20111;-80
2022/06/19 10:52:58;;;;;;;12.45;2.20;;;16.70;99.90;;;;;;5100644;28;20088;-79
2022/06/19 10:55:50;;;;;;;7.85;1.95;;;16.60;99.90;;;;;;5095033;28;20329;-79
2022/06/19 10:58:23;;;;;;;14.25;2.35;;;16.30;99.90;;;;;;5094124;28;20028;-78
2022/06/19 11:00:54;;;;;;;15.32;3.20;;;16.10;99.90;;;;;;5093870;28;20484;-78
2022/06/19 11:06:54;;;;;;;9.65;2.97;;;15.90;99.90;;;;;;5094245;28;20026;-79
2022/06/19 11:09:30;;;;;;;13.55;3.05;;;16.00;99.90;;;;;;5093227;28;20031;-79
2022/06/19 11:12:07;;;;;;;8.68;2.60;;;16.10;99.90;;;;;;5092927;28;20024;-80
2022/06/19 11:14:36;;;;;;;9.43;3.13;;;16.40;99.90;;;;;;5092566;28;20024;-80
2022/06/19 11:17:12;;;;;;;7.30;2.03;;;16.80;99.90;;;;;;5093318;28;20028;-80
2022/06/19 11:19:45;;;;;;;13.40;2.55;;;16.90;99.90;;;;;;5093166;28;20388;-80
2022/06/19 11:22:20;;;;;;;8.48;2.42;;;17.30;99.90;;;;;;5092270;28;20044;-79
2022/06/19 11:24:46;;;;;;;8.70;2.17;;;17.70;99.90;;;;;;5092653;28;20387;-80
2022/06/19 11:27:23;;;;;;;8.32;2.10;;;18.10;99.90;;;;;;5093066;28;20017;-80
2022/06/19 11:29:51;;;;;;;14.50;2.85;;;18.30;99.90;;;;;;5092081;28;20119;-80
2022/06/19 11:32:26;;;;;;;8.77;1.52;;;18.30;99.90;;;;;;5092961;28;20024;-80
2022/06/19 11:35:05;;;;;;;6.97;1.58;;;18.10;99.90;;;;;;5092752;28;20387;-79
2022/06/19 11:37:37;;;;;;;7.38;1.70;;;18.40;99.90;;;;;;5092911;28;20020;-79
2022/06/19 11:40:05;;;;;;;13.20;2.50;;;18.50;99.90;;;;;;5093231;28;20491;-79
2022/06/19 11:42:34;;;;;;;8.68;2.72;;;18.30;99.90;;;;;;5096149;28;20020;-80
2022/06/19 11:45:12;;;;;;;5.22;1.90;;;18.30;99.90;;;;;;5096238;28;20541;-78
2022/06/19 11:47:41;;;;;;;9.05;1.67;;;18.30;99.90;;;;;;5096563;28;20376;-78
2022/06/19 11:50:20;;;;;;;9.38;2.50;;;18.50;99.90;;;;;;5095347;28;20032;-80
2022/06/19 11:52:57;;;;;;;4.57;1.50;;;18.50;99.90;;;;;;5096254;28;20483;-78
2022/06/19 11:55:32;;;;;;;8.13;3.30;;;18.40;99.90;;;;;;5096022;28;20056;-79
2022/06/19 11:58:11;;;;;;;10.98;2.58;;;18.40;99.90;;;;;;5095380;28;20059;-78
2022/06/19 12:00:37;;;;;;;9.95;1.65;;;18.40;99.90;;;;;;5095550;28;20459;-78
2022/06/19 12:03:23;;;;;;;5.70;1.70;;;18.30;99.90;;;;;;5095929;28;20032;-80
2022/06/19 12:05:58;;;;;;;6.60;2.67;;;18.20;99.90;;;;;;5095318;28;20453;-78
2022/06/19 12:08:38;;;;;;;4.15;1.60;;;18.30;99.90;;;;;;5095777;28;20035;-79
2022/06/19 12:11:07;;;;;;;6.25;1.75;;;18.10;99.90;;;;;;5095270;28;20019;-78
2022/06/19 12:13:38;;;;;;;5.38;2.05;;;18.10;99.90;;;;;;5095592;28;20388;-78
2022/06/19 12:16:20;;;;;;;7.72;1.90;;;18.10;99.90;;;;;;5095713;28;20020;-78
2022/06/19 12:18:46;;;;;;;4.38;1.55;;;18.10;99.90;;;;;;5095253;28;20020;-80
2022/06/19 12:21:22;;;;;;;4.43;1.85;;;18.20;99.90;;;;;;5095735;28;20059;-77
2022/06/19 12:24:15;;;;;;;2.85;1.38;;;18.20;99.90;;;;;;5095870;28;20036;-79
2022/06/19 12:26:44;;;;;;;4.38;1.63;;;18.20;99.90;;;;;;5095722;28;20020;-78
2022/06/19 12:29:41;;;;;;;4.03;1.60;;;18.40;99.90;;;;;;5097865;28;20024;-79
2022/06/19 12:32:54;;;;;;;6.90;1.95;;;18.50;99.90;;;;;;5094959;28;20031;-78
2022/06/19 12:35:37;;;;;;;2.70;1.35;;;18.40;99.90;;;;;;5078433;28;20036;-79
2022/06/19 12:38:10;;;;;;;5.43;1.60;;;18.70;99.90;;;;;;5096469;28;20036;-79
2022/06/19 12:40:54;;;;;;;2.72;1.15;;;18.80;99.90;;;;;;5094959;28;20020;-79
2022/06/19 12:43:30;;;;;;;4.72;1.45;;;18.80;99.90;;;;;;5097873;28;20036;-78
2022/06/19 12:45:57;;;;;;;7.15;1.10;;;18.70;99.90;;;;;;5096436;28;20020;-78
2022/06/19 12:48:45;;;;;;;3.47;1.23;;;18.70;99.90;;;;;;5096652;28;20052;-78
2022/06/19 12:51:28;;;;;;;5.55;1.30;;;18.70;99.90;;;;;;5096930;28;20028;-80
2022/06/19 12:54:15;;;;;;;3.97;1.30;;;18.40;99.90;;;;;;5107847;28;20020;-79
2022/06/19 12:57:04;;;;;;;1.50;1.20;;;18.40;99.90;;;;;;5106672;28;20039;-80
2022/06/19 12:59:43;;;;;;;8.70;1.98;;;18.20;99.90;;;;;;5102976;28;20058;-79
2022/06/19 13:02:29;;;;;;;3.28;1.67;;;18.10;99.90;;;;;;5099639;28;20040;-79
2022/06/19 13:05:16;;;;;;;2.80;1.30;;;18.20;99.90;;;;;;5097673;28;20036;-78
2022/06/19 13:07:51;;;;;;;3.72;1.58;;;18.40;99.90;;;;;;5106951;28;20016;-81
2022/06/19 13:10:38;;;;;;;4.15;1.33;;;18.60;99.90;;;;;;5099451;28;20108;-78
2022/06/19 13:13:29;;;;;;;2.60;1.55;;;18.70;99.00;;;;;;5095079;28;20024;-80
2022/06/19 13:16:20;;;;;;;5.15;1.40;;;18.60;99.90;;;;;;5095032;28;20081;-79